createdAt,value
2017-08-11T00:01:20.973Z,86.50
2017-08-11T00:03:51.353Z,86.40
2017-08-11T00:06:21.971Z,86.20
2017-08-11T00:08:52.479Z,87.00
2017-08-11T00:11:22.779Z,86.60
2017-08-11T00:13:53.103Z,87.00
2017-08-11T00:16:23.645Z,87.10
2017-08-11T00:18:54.351Z,86.60
2017-08-11T00:21:24.916Z,86.50
2017-08-11T00:23:55.427Z,85.70
2017-08-11T00:26:26.061Z,85.80
2017-08-11T00:28:56.673Z,86.40
2017-08-11T00:31:27.321Z,86.40
2017-08-11T00:33:57.905Z,85.50
2017-08-11T00:36:28.415Z,86.20
2017-08-11T00:38:58.837Z,85.60
2017-08-11T00:41:29.349Z,85.90
2017-08-11T00:43:59.899Z,86.80
2017-08-11T00:46:30.326Z,86.10
2017-08-11T00:49:00.810Z,85.80
2017-08-11T00:51:32.211Z,84.50
2017-08-11T00:54:02.930Z,84.50
2017-08-11T00:56:33.374Z,84.40
2017-08-11T00:59:03.892Z,83.70
2017-08-11T01:01:34.388Z,81.90
2017-08-11T01:04:05.664Z,82.10
2017-08-11T01:06:36.046Z,82.10
2017-08-11T01:09:06.399Z,82.90
2017-08-11T01:11:36.922Z,82.50
2017-08-11T01:14:08.119Z,81.80
2017-08-11T01:16:38.654Z,81.70
2017-08-11T01:19:09.135Z,82.10
2017-08-11T01:21:39.768Z,82.80
2017-08-11T01:24:10.293Z,84.20
2017-08-11T01:26:41.589Z,85.10
2017-08-11T01:29:12.106Z,85.00
2017-08-11T01:31:42.652Z,84.00
2017-08-11T01:34:13.210Z,84.00
2017-08-11T01:36:43.543Z,83.60
2017-08-11T01:39:14.034Z,83.50
2017-08-11T01:41:44.462Z,83.30
2017-08-11T01:44:14.996Z,82.00
2017-08-11T01:46:45.389Z,81.50
2017-08-11T01:49:16.013Z,81.10
2017-08-11T01:51:46.257Z,80.70
2017-08-11T01:54:17.501Z,80.00
2017-08-11T01:56:48.030Z,81.30
2017-08-11T01:59:18.593Z,81.20
2017-08-11T02:01:49.228Z,80.80
2017-08-11T02:04:21.645Z,80.60
2017-08-11T02:06:52.963Z,80.60
2017-08-11T02:09:23.497Z,80.50
2017-08-11T02:11:54.141Z,80.60
2017-08-11T02:14:25.884Z,79.50
2017-08-11T02:16:57.092Z,79.60
2017-08-11T02:19:27.674Z,79.60
2017-08-11T02:21:58.190Z,77.40
2017-08-11T02:24:28.769Z,77.00
2017-08-11T02:27:00.007Z,75.10
2017-08-11T02:29:30.533Z,75.00
2017-08-11T02:32:01.311Z,74.60
2017-08-11T02:34:31.846Z,73.10
2017-08-11T02:37:02.481Z,73.20
2017-08-11T02:39:32.943Z,72.60
2017-08-11T02:42:03.546Z,72.10
2017-08-11T02:44:34.067Z,69.60
2017-08-11T02:47:04.521Z,70.70
2017-08-11T02:49:34.931Z,69.60
2017-08-11T02:52:05.441Z,70.30
2017-08-11T02:54:36.223Z,70.30
2017-08-11T02:57:06.584Z,69.10
2017-08-11T02:59:37.636Z,68.10
2017-08-11T03:02:08.006Z,68.00
2017-08-11T03:04:38.462Z,67.60
2017-08-11T03:07:08.814Z,66.60
2017-08-11T03:09:42.339Z,62.90
2017-08-11T03:12:12.946Z,62.80
2017-08-11T03:14:46.864Z,64.30
2017-08-11T03:17:17.919Z,63.50
2017-08-11T03:19:48.406Z,63.40
2017-08-11T03:22:18.871Z,61.70
2017-08-11T03:24:49.532Z,61.60
2017-08-11T03:27:20.345Z,59.60
2017-08-11T03:29:50.899Z,59.60
2017-08-11T03:32:21.530Z,59.80
2017-08-11T03:34:52.080Z,60.60
2017-08-11T03:37:22.711Z,59.60
2017-08-11T03:39:53.505Z,62.20
2017-08-11T03:42:24.167Z,60.30
2017-08-11T03:44:54.739Z,60.50
2017-08-11T03:47:26.010Z,60.70
2017-08-11T03:49:57.373Z,59.30
2017-08-11T03:52:27.820Z,59.30
2017-08-11T03:54:58.397Z,59.00
2017-08-11T03:57:28.786Z,60.40
2017-08-11T03:59:59.343Z,60.00
2017-08-11T04:02:29.891Z,59.70
2017-08-11T04:05:00.303Z,61.00
2017-08-11T04:07:30.926Z,61.50
2017-08-11T04:10:01.616Z,60.40
2017-08-11T04:12:32.799Z,61.10
2017-08-11T04:15:03.147Z,61.10
2017-08-11T04:17:33.534Z,59.80
2017-08-11T04:20:04.391Z,60.10
2017-08-11T04:22:35.783Z,59.60
2017-08-11T04:25:06.228Z,59.50
2017-08-11T04:27:36.772Z,58.50
2017-08-11T04:30:07.228Z,57.40
2017-08-11T04:32:37.626Z,55.10
2017-08-11T04:35:09.007Z,54.00
2017-08-11T04:37:39.514Z,53.90
2017-08-11T04:40:10.078Z,54.80
2017-08-11T04:42:40.523Z,55.70
2017-08-11T04:45:11.065Z,55.80
2017-08-11T04:47:41.566Z,56.80
2017-08-11T04:50:12.032Z,55.50
2017-08-11T04:52:42.247Z,55.90
2017-08-11T04:55:13.576Z,55.80
2017-08-11T04:57:44.051Z,57.40
2017-08-11T05:00:15.254Z,54.50
2017-08-11T05:02:45.843Z,54.40
2017-08-11T05:05:16.356Z,55.30
2017-08-11T05:07:47.445Z,56.50
2017-08-11T05:10:17.881Z,56.30
2017-08-11T05:12:48.379Z,56.10
2017-08-11T05:15:18.928Z,55.40
2017-08-11T05:17:49.526Z,54.20
2017-08-11T05:20:20.924Z,54.50
2017-08-11T05:22:51.374Z,54.50
2017-08-11T05:25:21.766Z,56.00
2017-08-11T05:27:52.282Z,55.10
2017-08-11T05:30:22.805Z,54.10
2017-08-11T05:32:53.438Z,53.00
2017-08-11T05:35:24.553Z,54.10
2017-08-11T05:37:55.006Z,54.10
2017-08-11T05:40:25.363Z,53.80
2017-08-11T05:42:56.006Z,54.20
2017-08-11T05:45:26.500Z,54.10
2017-08-11T05:47:57.690Z,53.20
2017-08-11T05:50:28.190Z,53.20
2017-08-11T05:52:58.646Z,53.50
2017-08-11T05:55:29.382Z,54.80
2017-08-11T05:57:59.877Z,54.40
2017-08-11T06:00:30.433Z,53.80
2017-08-11T06:03:00.903Z,54.40
2017-08-11T06:05:31.415Z,54.50
2017-08-11T06:08:02.024Z,54.30
2017-08-11T06:10:32.655Z,53.10
2017-08-11T06:13:03.065Z,53.60
2017-08-11T06:15:33.626Z,53.90
2017-08-11T06:18:04.162Z,55.00
2017-08-11T06:20:34.482Z,53.60
2017-08-11T06:23:04.837Z,53.40
2017-08-11T06:25:35.354Z,53.80
2017-08-11T06:28:05.968Z,53.60
2017-08-11T06:30:36.523Z,53.80
2017-08-11T06:33:06.997Z,54.10
2017-08-11T06:35:38.218Z,54.70
2017-08-11T06:38:08.777Z,54.70
2017-08-11T06:40:40.041Z,56.00
2017-08-11T06:43:13.755Z,55.90
2017-08-11T06:45:44.265Z,55.70
2017-08-11T06:48:15.806Z,55.20
2017-08-11T06:50:47.110Z,55.70
2017-08-11T06:53:17.714Z,55.70
2017-08-11T06:55:48.321Z,55.10
2017-08-11T06:58:18.907Z,54.60
2017-08-11T07:00:49.498Z,54.90
2017-08-11T07:03:20.050Z,55.50
2017-08-11T07:05:50.884Z,55.00
2017-08-11T07:08:21.486Z,54.60
2017-08-11T07:10:52.603Z,56.40
2017-08-11T07:13:23.098Z,55.80
2017-08-11T07:15:53.523Z,56.60
2017-08-11T07:18:24.048Z,54.90
2017-08-11T07:20:54.533Z,54.10
2017-08-11T07:23:25.011Z,55.70
2017-08-11T07:25:55.651Z,54.50
2017-08-11T07:28:26.193Z,55.70
2017-08-11T07:30:56.810Z,54.70
2017-08-11T07:33:27.442Z,54.60
2017-08-11T07:35:58.007Z,54.40
2017-08-11T07:38:28.467Z,56.00
2017-08-11T07:40:59.835Z,58.20
2017-08-11T07:43:30.482Z,57.70
2017-08-11T07:46:01.052Z,58.20
2017-08-11T07:48:31.632Z,57.70
2017-08-11T07:51:02.974Z,57.60
2017-08-11T07:53:34.355Z,58.90
2017-08-11T07:56:05.237Z,58.90
2017-08-11T07:58:35.805Z,58.20
2017-08-11T08:01:06.416Z,60.60
2017-08-11T08:03:37.054Z,61.80
2017-08-11T08:06:08.325Z,61.20
2017-08-11T08:08:38.901Z,61.10
2017-08-11T08:11:09.464Z,61.10
2017-08-11T08:13:40.680Z,58.70
2017-08-11T08:16:11.167Z,58.60
2017-08-11T08:18:41.733Z,57.80
2017-08-11T08:21:12.258Z,58.40
2017-08-11T08:23:42.754Z,57.60
2017-08-11T08:26:13.255Z,57.20
2017-08-11T08:28:43.911Z,57.80
2017-08-11T08:31:15.174Z,58.30
2017-08-11T08:33:45.616Z,58.30
2017-08-11T08:36:16.019Z,58.20
2017-08-11T08:38:46.550Z,59.10
2017-08-11T08:41:17.807Z,59.80
2017-08-11T08:43:48.439Z,59.80
2017-08-11T08:46:18.938Z,59.50
2017-08-11T08:48:49.499Z,59.00
2017-08-11T08:51:19.973Z,58.80
2017-08-11T08:53:50.555Z,59.40
2017-08-11T08:56:21.977Z,60.50
2017-08-11T08:58:52.387Z,60.50
2017-08-11T09:01:22.865Z,59.90
2017-08-11T09:03:53.307Z,60.90
2017-08-11T09:06:23.742Z,60.70
2017-08-11T09:08:54.256Z,60.30
2017-08-11T09:11:24.740Z,60.50
2017-08-11T09:13:55.316Z,60.80
2017-08-11T09:16:25.710Z,61.00
2017-08-11T09:18:56.295Z,60.80
2017-08-11T09:21:26.790Z,60.80
2017-08-11T09:23:57.953Z,60.90
2017-08-11T09:26:38.938Z,60.90
2017-08-11T09:29:20.231Z,61.00
2017-08-11T09:32:01.910Z,60.40
2017-08-11T09:34:43.475Z,61.00
2017-08-11T09:37:14.005Z,61.80
2017-08-11T09:39:50.341Z,63.10
2017-08-11T09:42:20.730Z,62.30
2017-08-11T09:44:51.271Z,62.00
2017-08-11T09:47:21.770Z,62.40
2017-08-11T09:49:52.972Z,64.80
2017-08-11T09:52:23.370Z,64.80
2017-08-11T09:54:53.821Z,65.50
2017-08-11T09:57:24.617Z,66.20
2017-08-11T09:59:55.052Z,66.00
2017-08-11T10:02:25.633Z,67.30
2017-08-11T10:04:56.123Z,67.50
2017-08-11T10:07:26.939Z,67.80
2017-08-11T10:09:58.133Z,66.80
2017-08-11T10:12:28.454Z,66.80
2017-08-11T10:14:58.982Z,67.50
2017-08-11T10:17:29.460Z,68.20
2017-08-11T10:20:00.136Z,67.10
2017-08-11T10:22:31.614Z,66.80
2017-08-11T10:25:01.934Z,66.70
2017-08-11T10:27:32.708Z,66.90
2017-08-11T10:30:03.073Z,66.70
2017-08-11T10:32:33.687Z,65.50
2017-08-11T10:35:04.164Z,65.10
2017-08-11T10:37:34.757Z,64.90
2017-08-11T10:40:05.377Z,65.50
2017-08-11T10:42:35.882Z,65.50
2017-08-11T10:45:06.451Z,65.30
2017-08-11T10:47:37.928Z,66.10
2017-08-11T10:50:09.252Z,66.30
2017-08-11T10:52:39.841Z,67.50
2017-08-11T10:55:10.445Z,70.00
2017-08-11T10:57:41.503Z,69.90
2017-08-11T11:00:12.101Z,70.70
2017-08-11T11:02:42.719Z,70.80
2017-08-11T11:05:13.216Z,70.30
2017-08-11T11:07:43.784Z,68.60
2017-08-11T11:10:14.461Z,69.20
2017-08-11T11:12:44.983Z,70.10
2017-08-11T11:15:15.354Z,70.50
2017-08-11T11:17:46.723Z,71.20
2017-08-11T11:20:17.347Z,71.20
2017-08-11T11:22:48.813Z,70.00
2017-08-11T11:25:19.177Z,70.00
2017-08-11T11:27:49.761Z,69.70
2017-08-11T11:30:21.107Z,70.00
2017-08-11T11:32:52.456Z,70.00
2017-08-11T11:35:23.748Z,70.90
2017-08-11T11:37:54.294Z,70.20
2017-08-11T11:40:24.808Z,70.10
2017-08-11T11:42:55.418Z,69.50
2017-08-11T11:45:26.280Z,69.70
2017-08-11T11:47:56.805Z,69.80
2017-08-11T11:50:27.234Z,69.70
2017-08-11T11:52:57.841Z,69.90
2017-08-11T11:55:29.020Z,69.90
2017-08-11T11:57:59.839Z,70.60
2017-08-11T12:00:30.306Z,69.80
2017-08-11T12:03:00.891Z,70.10
2017-08-11T12:05:31.454Z,70.20
2017-08-11T12:08:02.046Z,70.20
2017-08-11T12:10:33.228Z,71.00
2017-08-11T12:13:03.755Z,71.00
2017-08-11T12:15:36.212Z,71.90
2017-08-11T12:18:06.744Z,72.60
2017-08-11T12:20:37.221Z,73.00
2017-08-11T12:23:07.876Z,74.60
2017-08-11T12:25:44.001Z,75.90
2017-08-11T12:28:14.495Z,76.00
2017-08-11T12:30:45.012Z,76.90
2017-08-11T12:33:17.124Z,78.20
2017-08-11T12:35:47.545Z,78.20
2017-08-11T12:38:18.152Z,78.60
2017-08-11T12:40:49.266Z,79.90
2017-08-11T12:43:19.740Z,79.80
2017-08-11T12:45:50.427Z,80.50
2017-08-11T12:48:21.343Z,81.20
2017-08-11T12:50:51.759Z,82.70
2017-08-11T12:53:22.430Z,82.60
2017-08-11T12:55:52.884Z,82.90
2017-08-11T12:58:24.162Z,84.70
2017-08-11T13:00:54.636Z,84.60
2017-08-11T13:03:25.066Z,85.30
2017-08-11T13:05:55.478Z,86.50
2017-08-11T13:08:25.846Z,86.80
2017-08-11T13:10:57.160Z,86.10
2017-08-11T13:13:27.564Z,86.00
2017-08-11T13:15:58.071Z,86.40
2017-08-11T13:18:28.616Z,85.40
2017-08-11T13:20:59.026Z,85.80
2017-08-11T13:23:29.421Z,86.00
2017-08-11T13:25:59.936Z,85.90
2017-08-11T13:28:30.235Z,85.70
2017-08-11T13:31:00.809Z,85.50
2017-08-11T13:33:31.265Z,85.50
2017-08-11T13:36:01.881Z,85.30
2017-08-11T13:38:32.409Z,85.50
2017-08-11T13:41:03.812Z,89.00
2017-08-11T13:43:34.278Z,88.30
2017-08-11T13:46:04.881Z,88.50
2017-08-11T13:48:35.425Z,88.30
2017-08-11T13:51:05.732Z,89.00
2017-08-11T13:53:36.118Z,88.50
2017-08-11T13:56:06.483Z,87.60
2017-08-11T13:58:37.361Z,87.60
2017-08-11T14:01:07.976Z,85.90
2017-08-11T14:03:39.359Z,86.20
2017-08-11T14:06:10.625Z,86.50
2017-08-11T14:08:41.165Z,86.40
2017-08-11T14:11:12.575Z,87.30
2017-08-11T14:13:43.087Z,86.80
2017-08-11T14:16:13.531Z,86.80
2017-08-11T14:18:43.959Z,86.50
2017-08-11T14:21:14.880Z,86.40
2017-08-11T14:23:51.412Z,86.00
2017-08-11T14:26:22.047Z,85.20
2017-08-11T14:28:52.602Z,87.20
2017-08-11T14:31:24.094Z,87.80
2017-08-11T14:33:54.627Z,87.40
2017-08-11T14:36:25.030Z,87.90
2017-08-11T14:38:55.401Z,85.80
2017-08-11T14:41:26.015Z,85.50
2017-08-11T14:43:56.370Z,86.60
2017-08-11T14:46:27.773Z,87.50
2017-08-11T14:48:58.234Z,87.50
2017-08-11T14:51:28.903Z,87.40
2017-08-11T14:53:59.530Z,88.60
2017-08-11T14:56:31.875Z,88.80
2017-08-11T14:59:03.604Z,88.70
2017-08-11T15:01:34.393Z,88.90
2017-08-11T15:04:05.012Z,89.00
2017-08-11T15:06:36.307Z,87.70
2017-08-11T15:09:07.013Z,87.50
2017-08-11T15:11:37.382Z,87.70
2017-08-11T15:14:07.866Z,87.70
2017-08-11T15:16:38.416Z,88.10
2017-08-11T15:19:09.286Z,88.80
2017-08-11T15:21:39.866Z,89.20
2017-08-11T15:24:10.400Z,89.00
2017-08-11T15:26:41.101Z,87.70
2017-08-11T15:29:12.636Z,88.00
2017-08-11T15:31:43.217Z,86.50
2017-08-11T15:34:14.661Z,86.50
2017-08-11T15:36:45.909Z,86.50
2017-08-11T15:39:16.848Z,86.00
2017-08-11T15:41:47.495Z,87.50
2017-08-11T15:44:18.100Z,86.20
2017-08-11T15:46:48.695Z,86.00
2017-08-11T15:49:19.264Z,85.80
2017-08-11T15:51:50.575Z,86.80
2017-08-11T15:54:20.969Z,86.90
2017-08-11T15:56:51.514Z,86.60
2017-08-11T15:59:22.128Z,86.80
2017-08-11T16:01:53.419Z,87.50
2017-08-11T16:04:23.881Z,87.30
2017-08-11T16:06:54.545Z,87.50
2017-08-11T16:09:25.027Z,88.10
2017-08-11T16:11:55.636Z,88.60
2017-08-11T16:14:26.939Z,89.10
2017-08-11T16:16:57.542Z,89.10
2017-08-11T16:19:28.586Z,88.90
2017-08-11T16:21:59.093Z,88.50
2017-08-11T16:24:29.562Z,87.40
2017-08-11T16:27:00.675Z,87.10
2017-08-11T16:29:31.143Z,87.20
2017-08-11T16:32:01.614Z,86.80
2017-08-11T16:34:32.784Z,87.60
2017-08-11T16:37:03.261Z,87.90
2017-08-11T16:39:34.542Z,88.60
2017-08-11T16:42:05.202Z,88.50
2017-08-11T16:44:35.673Z,88.50
2017-08-11T16:47:06.649Z,88.60
2017-08-11T16:49:37.221Z,89.10
2017-08-11T16:52:07.406Z,89.00
2017-08-11T16:54:37.816Z,89.30
2017-08-11T16:57:08.171Z,89.50
2017-08-11T16:59:39.645Z,89.20
2017-08-11T17:02:09.942Z,89.30
2017-08-11T17:04:40.485Z,89.20
2017-08-11T17:07:10.910Z,89.10
2017-08-11T17:09:42.041Z,88.90
2017-08-11T17:12:12.358Z,89.10
2017-08-11T17:14:42.914Z,88.80
2017-08-11T17:17:13.303Z,88.00
2017-08-11T17:19:43.831Z,87.70
2017-08-11T17:22:15.114Z,87.50
2017-08-11T17:24:45.710Z,87.40
2017-08-11T17:27:17.064Z,88.10
2017-08-11T17:29:47.578Z,88.10
2017-08-11T17:32:18.234Z,87.60
2017-08-11T17:34:48.834Z,87.20
2017-08-11T17:37:20.022Z,87.40
2017-08-11T17:39:50.541Z,87.70
2017-08-11T17:42:21.714Z,87.80
2017-08-11T17:44:52.180Z,89.10
2017-08-11T17:47:22.576Z,89.00
2017-08-11T17:49:53.092Z,89.50
2017-08-11T17:52:23.607Z,88.40
2017-08-11T17:54:54.110Z,87.50
2017-08-11T17:57:24.573Z,88.00
2017-08-11T17:59:55.566Z,88.10
2017-08-11T18:02:26.033Z,88.30
2017-08-11T18:04:56.560Z,88.10
2017-08-11T18:07:27.833Z,87.50
2017-08-11T18:09:58.351Z,87.40
2017-08-11T18:12:28.933Z,87.20
2017-08-11T18:14:59.382Z,87.20
2017-08-11T18:17:30.673Z,88.20
2017-08-11T18:20:01.198Z,87.50
2017-08-11T18:22:31.636Z,87.50
2017-08-11T18:25:02.136Z,87.20
2017-08-11T18:27:33.257Z,86.80
2017-08-11T18:30:03.869Z,86.70
2017-08-11T18:32:34.361Z,86.50
2017-08-11T18:35:04.963Z,86.90
2017-08-11T18:37:35.425Z,87.90
2017-08-11T18:40:06.028Z,88.20
2017-08-11T18:42:36.578Z,88.30
2017-08-11T18:45:07.207Z,88.40
2017-08-11T18:47:38.097Z,88.20
2017-08-11T18:50:08.674Z,88.90
2017-08-11T18:52:39.882Z,89.60
2017-08-11T18:55:10.099Z,88.80
2017-08-11T18:57:40.678Z,89.00
2017-08-11T19:00:12.571Z,89.70
2017-08-11T19:02:43.200Z,89.70
2017-08-11T19:05:13.850Z,90.00
2017-08-11T19:07:44.205Z,90.00
2017-08-11T19:10:14.691Z,90.30
2017-08-11T19:12:45.241Z,90.40
2017-08-11T19:15:15.709Z,90.30
2017-08-11T19:17:46.299Z,90.10
2017-08-11T19:20:16.678Z,89.70
2017-08-11T19:22:48.217Z,89.10
2017-08-11T19:25:18.672Z,89.00
2017-08-11T19:27:49.266Z,89.60
2017-08-11T19:30:19.713Z,89.40
2017-08-11T19:32:50.274Z,89.30
2017-08-11T19:35:20.948Z,88.70
2017-08-11T19:37:51.520Z,88.80
2017-08-11T19:40:22.110Z,89.50
2017-08-11T19:42:52.730Z,89.80
2017-08-11T19:45:23.366Z,89.50
2017-08-11T19:47:54.102Z,90.10
2017-08-11T19:50:24.766Z,90.00
2017-08-11T19:52:55.267Z,89.30
2017-08-11T19:55:25.655Z,88.70
2017-08-11T19:57:56.245Z,88.60
2017-08-11T20:00:27.260Z,89.10
2017-08-11T20:02:57.769Z,89.60
2017-08-11T20:05:28.253Z,89.50
2017-08-11T20:07:58.545Z,89.30
2017-08-11T20:10:29.694Z,89.30
2017-08-11T20:13:00.425Z,90.10
2017-08-11T20:15:30.879Z,90.40
2017-08-11T20:18:01.442Z,90.80
2017-08-11T20:20:32.021Z,90.90
2017-08-11T20:23:02.601Z,91.40
2017-08-11T20:25:33.174Z,90.70
2017-08-11T20:28:03.741Z,90.80
2017-08-11T20:30:34.326Z,91.00
2017-08-11T20:33:04.909Z,89.50
2017-08-11T20:35:35.488Z,89.80
2017-08-11T20:38:06.153Z,89.90
2017-08-11T20:40:36.637Z,89.80
2017-08-11T20:43:07.272Z,90.10
2017-08-11T20:45:37.954Z,89.80
2017-08-11T20:48:08.562Z,90.00
2017-08-11T20:50:39.121Z,90.30
2017-08-11T20:53:09.743Z,90.30
2017-08-11T20:55:40.091Z,90.30
2017-08-11T20:58:10.614Z,89.70
2017-08-11T21:00:41.311Z,89.50
2017-08-11T21:03:11.827Z,89.80
2017-08-11T21:05:42.471Z,90.00
2017-08-11T21:08:13.059Z,90.00
2017-08-11T21:10:43.740Z,90.20
2017-08-11T21:13:14.209Z,90.20
2017-08-11T21:15:44.787Z,90.40
2017-08-11T21:18:15.422Z,90.50
2017-08-11T21:20:46.693Z,90.70
2017-08-11T21:23:17.222Z,90.60
2017-08-11T21:25:47.780Z,90.90
2017-08-11T21:28:18.266Z,90.40
2017-08-11T21:30:49.094Z,89.90
2017-08-11T21:33:19.697Z,89.40
2017-08-11T21:35:50.159Z,89.40
2017-08-11T21:38:20.814Z,89.40
2017-08-11T21:40:51.387Z,89.30
2017-08-11T21:43:21.934Z,89.50
2017-08-11T21:45:52.506Z,90.00
2017-08-11T21:48:23.102Z,90.10
2017-08-11T21:50:53.695Z,89.60
2017-08-11T21:53:24.323Z,89.60
2017-08-11T21:55:54.959Z,89.50
2017-08-11T21:58:25.592Z,88.80
2017-08-11T22:00:56.315Z,88.00
2017-08-11T22:03:26.782Z,87.90
2017-08-11T22:05:57.278Z,88.10
2017-08-11T22:08:27.821Z,88.30
2017-08-11T22:10:58.243Z,88.20
2017-08-11T22:13:28.757Z,88.70
2017-08-11T22:15:59.368Z,88.40
2017-08-11T22:18:30.020Z,88.50
2017-08-11T22:21:00.531Z,89.10
2017-08-11T22:23:31.211Z,88.20
2017-08-11T22:26:01.776Z,89.40
2017-08-11T22:28:32.385Z,90.30
2017-08-11T22:31:03.007Z,90.40
2017-08-11T22:33:33.739Z,90.10
2017-08-11T22:36:04.053Z,90.10
2017-08-11T22:38:34.525Z,89.70
2017-08-11T22:41:05.022Z,90.00
2017-08-11T22:43:35.659Z,89.70
2017-08-11T22:46:06.260Z,89.70
2017-08-11T22:48:36.907Z,90.00
2017-08-11T22:51:07.530Z,90.00
2017-08-11T22:53:38.803Z,90.40
2017-08-11T22:56:09.507Z,90.40
2017-08-11T22:58:40.872Z,90.60
2017-08-11T23:01:11.924Z,90.50
2017-08-11T23:03:42.821Z,90.40
2017-08-11T23:06:13.309Z,90.30
2017-08-11T23:08:43.714Z,90.30
2017-08-11T23:11:14.295Z,90.60
2017-08-11T23:13:44.852Z,90.80
2017-08-11T23:16:15.531Z,90.90
2017-08-11T23:18:46.125Z,90.90
2017-08-11T23:21:16.747Z,90.90
2017-08-11T23:23:47.327Z,91.00
2017-08-11T23:26:17.876Z,91.00
2017-08-11T23:28:48.240Z,90.90
2017-08-11T23:31:18.834Z,90.80
2017-08-11T23:33:49.393Z,90.70
2017-08-11T23:36:19.755Z,90.60
2017-08-11T23:38:50.306Z,90.20
2017-08-11T23:41:20.922Z,90.20
2017-08-11T23:43:51.466Z,90.40
2017-08-11T23:46:21.985Z,90.50
2017-08-11T23:48:53.390Z,90.50
2017-08-11T23:51:24.419Z,90.40
2017-08-11T23:53:55.747Z,90.30
2017-08-11T23:56:26.791Z,90.30
2017-08-11T23:58:57.407Z,89.80
